createdAt,value
2022-07-27T00:01:15.567Z,21.04
2022-07-27T00:03:45.946Z,21.03
2022-07-27T00:06:14.190Z,21.11
2022-07-27T00:08:42.225Z,21.09
2022-07-27T00:11:11.596Z,21.11
2022-07-27T00:13:41.228Z,21.20
2022-07-27T00:16:09.437Z,21.24
2022-07-27T00:18:37.432Z,21.27
2022-07-27T00:21:05.358Z,21.24
2022-07-27T00:23:34.107Z,21.11
2022-07-27T00:26:02.059Z,21.01
2022-07-27T00:28:30.084Z,21.00
2022-07-27T00:30:59.509Z,20.95
2022-07-27T00:33:27.511Z,20.92
2022-07-27T00:35:55.536Z,20.74
2022-07-27T00:38:23.570Z,20.53
2022-07-27T00:40:51.606Z,20.38
2022-07-27T00:43:19.550Z,20.29
2022-07-27T00:45:48.657Z,20.21
2022-07-27T00:48:17.935Z,20.08
2022-07-27T00:50:48.098Z,20.22
2022-07-27T00:53:16.824Z,20.32
2022-07-27T00:55:45.891Z,20.42
2022-07-27T00:58:14.185Z,20.51
2022-07-27T01:00:42.161Z,20.50
2022-07-27T01:03:10.291Z,20.31
2022-07-27T01:05:42.539Z,20.33
2022-07-27T01:08:13.940Z,20.23
2022-07-27T01:10:42.587Z,20.07
2022-07-27T01:13:12.522Z,19.93
2022-07-27T01:15:43.114Z,19.83
2022-07-27T01:18:26.941Z,19.82
2022-07-27T01:20:57.015Z,19.74
2022-07-27T01:23:27.083Z,19.52
2022-07-27T01:25:55.407Z,19.41
2022-07-27T01:28:23.288Z,19.24
2022-07-27T01:30:51.699Z,19.24
2022-07-27T01:33:25.704Z,19.34
2022-07-27T01:35:55.542Z,19.20
2022-07-27T01:38:23.785Z,18.89
2022-07-27T01:40:54.732Z,18.57
2022-07-27T01:43:23.404Z,18.50
2022-07-27T01:45:51.599Z,18.51
2022-07-27T01:48:20.404Z,18.61
2022-07-27T01:50:51.213Z,18.62
2022-07-27T01:53:19.372Z,18.46
2022-07-27T01:55:47.360Z,18.55
2022-07-27T01:58:16.818Z,18.53
2022-07-27T02:00:44.765Z,18.53
2022-07-27T02:03:12.810Z,18.58
2022-07-27T02:05:40.933Z,18.66
2022-07-27T02:08:09.672Z,18.68
2022-07-27T02:10:58.589Z,18.81
2022-07-27T02:13:27.051Z,18.84
2022-07-27T02:15:55.174Z,19.01
2022-07-27T02:18:33.182Z,19.19
2022-07-27T02:21:04.535Z,19.42
2022-07-27T02:23:32.542Z,19.47
2022-07-27T02:26:01.200Z,19.44
2022-07-27T02:28:30.499Z,19.46
2022-07-27T02:30:58.469Z,19.52
2022-07-27T02:33:26.357Z,19.57
2022-07-27T02:35:54.514Z,19.60
2022-07-27T02:38:22.469Z,19.65
2022-07-27T02:40:50.379Z,19.65
2022-07-27T02:43:18.377Z,19.70
2022-07-27T02:45:48.452Z,19.74
2022-07-27T02:48:16.540Z,19.67
2022-07-27T02:50:44.605Z,19.62
2022-07-27T02:53:12.570Z,19.57
2022-07-27T02:55:40.572Z,19.43
2022-07-27T02:58:08.534Z,19.45
2022-07-27T03:00:36.437Z,19.34
2022-07-27T03:03:05.826Z,19.24
2022-07-27T03:05:33.690Z,19.20
2022-07-27T03:08:01.891Z,19.21
2022-07-27T03:10:29.779Z,19.11
2022-07-27T03:12:57.785Z,19.01
2022-07-27T03:15:26.111Z,18.94
2022-07-27T03:17:54.186Z,18.88
2022-07-27T03:20:23.551Z,18.84
2022-07-27T03:22:51.455Z,18.77
2022-07-27T03:25:19.332Z,18.67
2022-07-27T03:27:47.428Z,18.63
2022-07-27T03:30:15.680Z,18.67
2022-07-27T03:32:43.531Z,18.65
2022-07-27T03:35:11.570Z,18.56
2022-07-27T03:37:41.010Z,18.57
2022-07-27T03:40:10.783Z,18.66
2022-07-27T03:42:40.024Z,18.71
2022-07-27T03:45:09.576Z,18.67
2022-07-27T03:47:37.645Z,18.52
2022-07-27T03:50:06.358Z,18.59
2022-07-27T03:52:34.261Z,18.49
2022-07-27T03:55:03.822Z,18.63
2022-07-27T03:57:31.809Z,18.55
2022-07-27T03:59:59.893Z,18.48
2022-07-27T04:02:27.869Z,18.53
2022-07-27T04:04:55.761Z,18.45
2022-07-27T04:07:23.637Z,18.35
2022-07-27T04:09:51.626Z,18.28
2022-07-27T04:12:20.862Z,18.30
2022-07-27T04:14:49.231Z,18.32
2022-07-27T04:17:53.489Z,18.31
2022-07-27T04:20:06.542Z,18.21
2022-07-27T04:22:34.490Z,18.22
2022-07-27T04:25:02.429Z,18.41
2022-07-27T04:27:31.672Z,18.51
2022-07-27T04:29:59.797Z,18.57
2022-07-27T04:32:27.725Z,18.67
2022-07-27T04:34:55.800Z,18.73
2022-07-27T04:37:23.692Z,18.88
2022-07-27T04:39:51.658Z,19.00
2022-07-27T04:42:19.568Z,19.14
2022-07-27T04:44:48.841Z,19.22
2022-07-27T04:47:16.741Z,19.37
2022-07-27T04:49:44.646Z,19.46
2022-07-27T04:52:15.029Z,19.56
2022-07-27T04:54:43.103Z,19.61
2022-07-27T04:57:11.119Z,19.70
2022-07-27T04:59:39.098Z,19.65
2022-07-27T05:02:08.510Z,19.63
2022-07-27T05:04:36.515Z,19.69
2022-07-27T05:07:04.449Z,19.80
2022-07-27T05:09:32.373Z,19.92
2022-07-27T05:12:00.248Z,19.94
2022-07-27T05:14:28.144Z,19.99
2022-07-27T05:16:56.106Z,20.04
2022-07-27T05:19:40.395Z,20.07
2022-07-27T05:22:08.984Z,20.14
2022-07-27T05:24:37.108Z,20.20
2022-07-27T05:27:05.989Z,20.20
2022-07-27T05:29:33.930Z,20.21
2022-07-27T05:32:01.927Z,20.25
2022-07-27T05:34:31.896Z,20.28
2022-07-27T05:36:59.867Z,20.31
2022-07-27T05:39:27.829Z,20.29
2022-07-27T05:41:55.700Z,20.34
2022-07-27T05:44:24.074Z,20.35
2022-07-27T05:46:52.040Z,20.33
2022-07-27T05:49:20.079Z,20.31
2022-07-27T05:51:49.918Z,20.35
2022-07-27T05:54:18.510Z,20.37
2022-07-27T05:56:46.670Z,20.21
2022-07-27T05:59:14.928Z,20.23
2022-07-27T06:01:43.176Z,20.28
2022-07-27T06:04:14.423Z,20.31
2022-07-27T06:07:00.359Z,20.37
2022-07-27T06:09:29.805Z,20.42
2022-07-27T06:11:57.829Z,20.51
2022-07-27T06:14:25.784Z,20.50
2022-07-27T06:16:54.670Z,20.58
2022-07-27T06:19:22.669Z,20.57
2022-07-27T06:21:53.769Z,20.60
2022-07-27T06:24:22.040Z,20.70
2022-07-27T06:26:51.602Z,20.87
2022-07-27T06:29:19.476Z,21.03
2022-07-27T06:31:47.462Z,21.13
2022-07-27T06:34:15.786Z,21.09
2022-07-27T06:36:45.359Z,21.11
2022-07-27T06:39:14.027Z,21.22
2022-07-27T06:41:42.208Z,21.29
2022-07-27T06:44:16.167Z,21.38
2022-07-27T06:46:44.443Z,21.48
2022-07-27T06:49:12.652Z,21.59
2022-07-27T06:51:40.904Z,21.67
2022-07-27T06:54:08.824Z,21.72
2022-07-27T06:56:36.918Z,21.78
2022-07-27T06:59:04.927Z,21.82
2022-07-27T07:01:34.333Z,21.85
2022-07-27T07:04:02.735Z,21.96
2022-07-27T07:06:30.757Z,22.07
2022-07-27T07:08:58.688Z,22.08
2022-07-27T07:11:26.633Z,22.12
2022-07-27T07:13:54.633Z,22.18
2022-07-27T07:16:22.586Z,22.24
2022-07-27T07:18:52.652Z,22.32
2022-07-27T07:21:20.953Z,22.33
2022-07-27T07:23:49.006Z,22.40
2022-07-27T07:26:17.123Z,22.44
2022-07-27T07:28:45.110Z,22.45
2022-07-27T07:31:13.081Z,22.49
2022-07-27T07:33:41.030Z,22.51
2022-07-27T07:36:14.109Z,22.55
2022-07-27T07:38:43.112Z,22.61
2022-07-27T07:41:11.066Z,22.79
2022-07-27T07:43:39.819Z,23.01
2022-07-27T07:46:08.696Z,23.14
2022-07-27T07:48:39.001Z,23.19
2022-07-27T07:51:06.978Z,23.24
2022-07-27T07:53:41.137Z,23.24
2022-07-27T07:56:09.458Z,23.22
2022-07-27T07:58:37.409Z,23.23
2022-07-27T08:01:05.439Z,23.20
2022-07-27T08:03:33.424Z,23.19
2022-07-27T08:06:01.742Z,23.17
2022-07-27T08:08:31.239Z,23.17
2022-07-27T08:11:00.609Z,23.19
2022-07-27T08:13:28.559Z,23.20
2022-07-27T08:15:56.827Z,23.23
2022-07-27T08:18:24.768Z,23.27
2022-07-27T08:20:52.725Z,23.29
2022-07-27T08:23:20.718Z,23.32
2022-07-27T08:25:48.665Z,23.43
2022-07-27T08:28:17.921Z,23.49
2022-07-27T08:30:46.505Z,23.53
2022-07-27T08:33:14.475Z,23.57
2022-07-27T08:35:42.564Z,23.63
2022-07-27T08:38:11.042Z,23.59
2022-07-27T08:40:43.357Z,23.68
2022-07-27T08:43:20.202Z,23.72
2022-07-27T08:45:56.278Z,23.77
2022-07-27T08:48:25.791Z,23.82
2022-07-27T08:50:54.108Z,23.85
2022-07-27T08:53:23.314Z,23.88
2022-07-27T08:55:51.402Z,23.89
2022-07-27T08:58:19.522Z,23.90
2022-07-27T09:00:49.762Z,23.92
2022-07-27T09:03:21.712Z,23.96
2022-07-27T09:05:52.462Z,24.03
2022-07-27T09:08:24.671Z,24.06
2022-07-27T09:10:55.543Z,24.11
2022-07-27T09:13:25.927Z,24.15
2022-07-27T09:16:17.112Z,24.21
2022-07-27T09:18:45.419Z,24.28
2022-07-27T09:21:16.919Z,24.30
2022-07-27T09:23:48.088Z,24.33
2022-07-27T09:26:35.914Z,24.46
2022-07-27T09:29:06.709Z,24.52
2022-07-27T09:31:41.759Z,24.56
2022-07-27T09:34:11.788Z,24.56
2022-07-27T09:36:52.372Z,24.65
2022-07-27T09:39:21.378Z,24.71
2022-07-27T09:41:50.276Z,24.75
2022-07-27T09:44:41.996Z,24.81
2022-07-27T09:47:26.381Z,24.85
2022-07-27T09:49:57.900Z,24.88
2022-07-27T09:52:28.009Z,24.93
2022-07-27T09:55:02.752Z,24.94
2022-07-27T09:57:30.986Z,24.98
2022-07-27T10:00:10.199Z,25.05
2022-07-27T10:02:38.730Z,25.11
2022-07-27T10:05:09.159Z,25.17
2022-07-27T10:07:37.424Z,25.24
2022-07-27T10:10:06.620Z,25.25
2022-07-27T10:12:34.606Z,25.22
2022-07-27T10:15:02.600Z,25.25
2022-07-27T10:17:31.294Z,25.30
2022-07-27T10:19:59.543Z,25.35
2022-07-27T10:22:51.485Z,25.48
2022-07-27T10:25:19.888Z,25.62
2022-07-27T10:27:49.389Z,25.77
2022-07-27T10:30:27.585Z,25.82
2022-07-27T10:33:00.169Z,26.00
2022-07-27T10:35:36.451Z,26.18
2022-07-27T10:38:11.639Z,26.30
2022-07-27T10:40:40.185Z,26.28
2022-07-27T10:43:11.628Z,26.43
2022-07-27T10:45:59.978Z,26.50
2022-07-27T10:48:36.229Z,26.53
2022-07-27T10:51:05.190Z,26.49
2022-07-27T10:54:09.313Z,26.41
2022-07-27T10:56:45.481Z,26.40
2022-07-27T10:59:13.458Z,26.48
2022-07-27T11:01:56.665Z,26.44
2022-07-27T11:04:25.857Z,26.48
2022-07-27T11:07:23.678Z,26.49
2022-07-27T11:10:04.731Z,26.51
2022-07-27T11:12:33.237Z,26.50
2022-07-27T11:15:02.734Z,26.56
2022-07-27T11:20:23.961Z,27.04
2022-07-27T11:25:41.921Z,27.79
2022-07-27T11:28:09.836Z,28.01
2022-07-27T11:30:37.846Z,28.09
2022-07-27T11:33:07.247Z,28.03
2022-07-27T11:35:35.555Z,28.11
2022-07-27T11:38:07.630Z,28.16
2022-07-27T11:40:56.764Z,28.12
2022-07-27T11:43:36.938Z,28.28
2022-07-27T11:46:13.903Z,28.36
2022-07-27T11:49:08.402Z,28.41
2022-07-27T11:51:38.758Z,28.26
2022-07-27T11:54:08.673Z,28.14
2022-07-27T11:56:39.942Z,28.03
2022-07-27T11:59:13.704Z,28.12
2022-07-27T12:01:45.121Z,28.24
2022-07-27T12:04:19.790Z,28.44
2022-07-27T12:06:55.240Z,28.71
2022-07-27T12:09:23.893Z,28.68
2022-07-27T12:11:57.187Z,28.56
2022-07-27T12:14:30.378Z,28.46
2022-07-27T12:17:12.455Z,28.30
2022-07-27T12:19:40.937Z,28.20
2022-07-27T12:22:09.708Z,28.18
2022-07-27T12:24:39.799Z,28.30
2022-07-27T12:27:14.342Z,28.67
2022-07-27T12:30:03.509Z,28.95
2022-07-27T12:32:33.694Z,29.12
2022-07-27T12:35:02.321Z,29.20
2022-07-27T12:37:31.804Z,29.16
2022-07-27T12:40:01.267Z,29.14
2022-07-27T12:42:37.650Z,29.07
2022-07-27T12:45:13.512Z,28.82
2022-07-27T12:47:41.537Z,28.82
2022-07-27T12:50:11.914Z,28.68
2022-07-27T12:52:44.001Z,28.56
2022-07-27T12:55:15.873Z,28.44
2022-07-27T12:57:55.698Z,28.40
2022-07-27T13:00:44.819Z,28.43
2022-07-27T13:03:12.840Z,28.58
2022-07-27T13:05:41.641Z,28.69
2022-07-27T13:08:10.626Z,28.70
2022-07-27T13:10:39.590Z,28.71
2022-07-27T13:14:04.151Z,28.75
2022-07-27T13:16:33.804Z,28.49
2022-07-27T13:19:01.872Z,28.32
2022-07-27T13:21:29.905Z,28.23
2022-07-27T13:23:58.380Z,28.23
2022-07-27T13:26:27.615Z,28.38
2022-07-27T13:28:55.876Z,28.60
2022-07-27T13:31:24.180Z,28.72
2022-07-27T13:33:53.621Z,28.92
2022-07-27T13:36:22.414Z,28.96
2022-07-27T13:38:50.354Z,29.06
2022-07-27T13:41:18.406Z,28.92
2022-07-27T13:43:46.419Z,28.72
2022-07-27T13:46:14.527Z,28.63
2022-07-27T13:48:42.521Z,28.56
2022-07-27T13:51:11.771Z,28.53
2022-07-27T13:53:39.656Z,28.56
2022-07-27T13:56:07.636Z,28.56
2022-07-27T13:58:35.732Z,28.54
2022-07-27T14:01:07.507Z,28.49
2022-07-27T14:03:35.974Z,28.31
2022-07-27T14:06:04.194Z,28.19
2022-07-27T14:08:35.854Z,28.23
2022-07-27T14:11:03.930Z,28.23
2022-07-27T14:13:32.769Z,28.04
2022-07-27T14:16:01.598Z,27.79
2022-07-27T14:18:32.052Z,27.64
2022-07-27T14:21:01.758Z,27.44
2022-07-27T14:23:30.335Z,27.29
2022-07-27T14:26:00.707Z,27.29
2022-07-27T14:28:29.860Z,27.28
2022-07-27T14:30:58.704Z,27.20
2022-07-27T14:33:33.196Z,27.07
2022-07-27T14:36:05.474Z,27.01
2022-07-27T14:38:33.440Z,26.96
2022-07-27T14:41:02.819Z,26.95
2022-07-27T14:43:31.572Z,26.98
2022-07-27T14:46:00.239Z,27.04
2022-07-27T14:48:55.556Z,27.13
2022-07-27T14:51:17.002Z,27.20
2022-07-27T14:53:45.064Z,27.25
2022-07-27T14:56:14.748Z,27.30
2022-07-27T14:58:43.015Z,27.38
2022-07-27T15:01:10.973Z,27.44
2022-07-27T15:03:38.953Z,27.49
2022-07-27T15:06:07.205Z,27.56
2022-07-27T15:08:35.154Z,27.61
2022-07-27T15:11:03.086Z,27.62
2022-07-27T15:13:32.452Z,27.60
2022-07-27T15:16:00.495Z,27.59
2022-07-27T15:18:28.613Z,27.59
2022-07-27T15:20:56.817Z,27.58
2022-07-27T15:23:24.689Z,27.52
2022-07-27T15:25:52.714Z,27.44
2022-07-27T15:28:20.794Z,27.41
2022-07-27T15:30:50.120Z,27.39
2022-07-27T15:33:18.091Z,27.36
2022-07-27T15:35:46.034Z,27.32
2022-07-27T15:38:14.041Z,27.34
2022-07-27T15:40:42.507Z,27.32
2022-07-27T15:43:14.001Z,27.27
2022-07-27T15:45:43.947Z,27.20
2022-07-27T15:48:13.674Z,27.13
2022-07-27T15:50:43.466Z,27.11
2022-07-27T15:53:12.083Z,27.16
2022-07-27T15:55:40.121Z,27.17
2022-07-27T15:58:08.645Z,27.08
2022-07-27T16:00:41.266Z,27.13
2022-07-27T16:03:10.111Z,27.09
2022-07-27T16:05:40.738Z,27.02
2022-07-27T16:08:09.918Z,26.99
2022-07-27T16:10:38.778Z,27.05
2022-07-27T16:13:07.203Z,27.19
2022-07-27T16:15:50.001Z,27.29
2022-07-27T16:18:18.023Z,27.29
2022-07-27T16:20:47.390Z,27.23
2022-07-27T16:23:21.189Z,27.21
2022-07-27T16:26:04.152Z,27.12
2022-07-27T16:28:33.876Z,26.97
2022-07-27T16:31:01.921Z,26.90
2022-07-27T16:33:30.291Z,26.87
2022-07-27T16:36:00.072Z,26.90
2022-07-27T16:38:28.441Z,26.87
2022-07-27T16:40:56.390Z,26.84
2022-07-27T16:43:37.497Z,26.77
2022-07-27T16:46:10.047Z,26.61
2022-07-27T16:48:42.693Z,26.66
2022-07-27T16:51:14.403Z,26.62
2022-07-27T16:53:43.794Z,26.51
2022-07-27T16:56:12.251Z,26.59
2022-07-27T16:58:40.572Z,26.51
2022-07-27T17:01:09.314Z,26.56
2022-07-27T17:03:37.761Z,26.46
2022-07-27T17:06:08.866Z,26.34
2022-07-27T17:08:38.195Z,26.26
2022-07-27T17:11:06.898Z,26.22
2022-07-27T17:13:37.089Z,26.11
2022-07-27T17:16:06.524Z,26.14
2022-07-27T17:18:40.235Z,26.10
2022-07-27T17:21:12.781Z,26.04
2022-07-27T17:23:44.037Z,26.06
2022-07-27T17:26:15.010Z,26.00
2022-07-27T17:28:43.333Z,26.00
2022-07-27T17:31:13.224Z,25.96
2022-07-27T17:33:42.246Z,25.94
2022-07-27T17:36:15.169Z,25.95
2022-07-27T17:38:45.226Z,25.90
2022-07-27T17:41:13.537Z,25.98
2022-07-27T17:43:42.265Z,25.96
2022-07-27T17:46:12.654Z,25.92
2022-07-27T17:48:41.531Z,25.86
2022-07-27T17:51:10.577Z,25.82
2022-07-27T17:53:38.913Z,25.76
2022-07-27T17:56:08.536Z,25.76
2022-07-27T17:58:36.682Z,25.70
2022-07-27T18:01:04.871Z,25.63
2022-07-27T18:03:33.027Z,25.58
2022-07-27T18:06:01.540Z,25.51
2022-07-27T18:08:29.657Z,25.47
2022-07-27T18:10:57.692Z,25.42
2022-07-27T18:13:39.047Z,25.37
2022-07-27T18:16:09.292Z,25.36
2022-07-27T18:18:37.855Z,25.34
2022-07-27T18:21:06.711Z,25.32
2022-07-27T18:23:34.881Z,25.26
2022-07-27T18:26:02.963Z,25.21
2022-07-27T18:28:39.194Z,25.17
2022-07-27T18:31:09.518Z,25.13
2022-07-27T18:33:37.871Z,25.10
2022-07-27T18:36:06.475Z,25.02
2022-07-27T18:38:34.472Z,25.04
2022-07-27T18:41:02.914Z,25.00
2022-07-27T18:43:32.250Z,24.97
2022-07-27T18:46:00.480Z,24.87
2022-07-27T18:48:28.828Z,24.78
2022-07-27T18:50:57.233Z,24.73
2022-07-27T18:53:25.156Z,24.74
2022-07-27T18:55:56.452Z,24.74
2022-07-27T18:58:25.525Z,24.74
2022-07-27T19:00:55.594Z,24.75
2022-07-27T19:03:24.720Z,24.68
2022-07-27T19:05:56.201Z,24.62
2022-07-27T19:08:24.276Z,24.57
2022-07-27T19:10:52.493Z,24.56
2022-07-27T19:13:21.082Z,24.51
2022-07-27T19:15:49.166Z,24.34
2022-07-27T19:18:18.524Z,24.26
2022-07-27T19:20:46.512Z,24.17
2022-07-27T19:23:14.438Z,24.13
2022-07-27T19:25:42.364Z,24.12
2022-07-27T19:28:10.322Z,24.00
2022-07-27T19:30:39.223Z,23.93
2022-07-27T19:33:07.146Z,23.93
2022-07-27T19:35:36.478Z,23.79
2022-07-27T19:38:04.677Z,23.70
2022-07-27T19:40:44.138Z,23.67
2022-07-27T19:43:13.817Z,23.64
2022-07-27T19:45:42.115Z,23.59
2022-07-27T19:48:10.521Z,23.62
2022-07-27T19:50:40.040Z,23.67
2022-07-27T19:53:08.245Z,23.72
2022-07-27T19:55:36.191Z,23.73
2022-07-27T19:58:04.217Z,23.75
2022-07-27T20:00:32.358Z,23.67
2022-07-27T20:03:00.348Z,23.62
2022-07-27T20:05:28.784Z,23.49
2022-07-27T20:07:58.056Z,23.39
2022-07-27T20:10:26.324Z,23.47
2022-07-27T20:12:54.458Z,23.49
2022-07-27T20:15:22.779Z,23.49
2022-07-27T20:17:51.052Z,23.46
2022-07-27T20:20:19.029Z,23.40
2022-07-27T20:22:47.195Z,23.36
2022-07-27T20:25:18.394Z,23.28
2022-07-27T20:27:47.075Z,23.24
2022-07-27T20:30:17.254Z,23.23
2022-07-27T20:32:45.397Z,23.08
2022-07-27T20:35:13.316Z,23.17
2022-07-27T20:37:41.395Z,23.19
2022-07-27T20:40:12.003Z,23.14
2022-07-27T20:42:41.660Z,23.17
2022-07-27T20:45:11.569Z,23.13
2022-07-27T20:47:39.756Z,23.18
2022-07-27T20:50:09.287Z,23.11
2022-07-27T20:52:37.320Z,23.05
2022-07-27T20:55:06.112Z,22.97
2022-07-27T20:57:34.058Z,22.96
2022-07-27T21:00:03.578Z,22.95
2022-07-27T21:02:31.797Z,22.90
2022-07-27T21:04:59.941Z,22.85
2022-07-27T21:07:28.168Z,22.80
2022-07-27T21:09:56.117Z,22.90
2022-07-27T21:12:24.088Z,22.98
2022-07-27T21:14:52.190Z,23.02
2022-07-27T21:17:21.506Z,23.00
2022-07-27T21:19:49.425Z,23.01
2022-07-27T21:22:17.392Z,23.04
2022-07-27T21:24:44.331Z,23.05
2022-07-27T21:27:14.442Z,23.06
2022-07-27T21:29:42.654Z,23.08
2022-07-27T21:32:10.615Z,23.02
2022-07-27T21:34:39.902Z,22.86
2022-07-27T21:37:07.814Z,22.62
2022-07-27T21:39:36.058Z,22.52
2022-07-27T21:42:04.186Z,22.44
2022-07-27T21:44:32.436Z,22.53
2022-07-27T21:47:00.664Z,22.65
2022-07-27T21:49:32.412Z,22.60
2022-07-27T21:52:04.237Z,22.52
2022-07-27T21:54:32.115Z,22.26
2022-07-27T21:57:00.025Z,22.16
2022-07-27T21:59:28.024Z,22.05
2022-07-27T22:01:55.986Z,21.91
2022-07-27T22:04:24.000Z,21.89
2022-07-27T22:06:51.977Z,21.92
2022-07-27T22:09:21.278Z,21.95
2022-07-27T22:11:49.156Z,21.97
2022-07-27T22:14:17.795Z,21.98
2022-07-27T22:16:46.134Z,22.05
2022-07-27T22:19:14.135Z,22.17
2022-07-27T22:21:42.060Z,22.21
2022-07-27T22:24:10.452Z,22.27
2022-07-27T22:26:39.988Z,22.36
2022-07-27T22:29:07.968Z,22.41
2022-07-27T22:31:35.944Z,22.45
2022-07-27T22:34:04.072Z,22.43
2022-07-27T22:36:32.478Z,22.40
2022-07-27T22:39:00.495Z,22.45
2022-07-27T22:41:28.533Z,22.40
2022-07-27T22:43:57.784Z,22.38
2022-07-27T22:46:26.083Z,22.32
2022-07-27T22:48:54.270Z,22.33
2022-07-27T22:51:22.582Z,22.19
2022-07-27T22:53:50.505Z,22.11
2022-07-27T22:56:18.746Z,22.14
2022-07-27T22:58:46.701Z,22.14
2022-07-27T23:01:47.412Z,22.21
2022-07-27T23:04:04.145Z,22.27
2022-07-27T23:06:32.064Z,22.24
2022-07-27T23:08:59.981Z,22.15
2022-07-27T23:11:28.001Z,22.21
2022-07-27T23:13:56.122Z,22.20
2022-07-27T23:16:25.444Z,22.19
2022-07-27T23:18:53.360Z,22.19
2022-07-27T23:21:22.061Z,22.19
2022-07-27T23:23:54.047Z,22.19
2022-07-27T23:26:22.946Z,22.14
2022-07-27T23:28:54.324Z,22.10
2022-07-27T23:31:22.437Z,22.05
2022-07-27T23:33:51.818Z,22.02
2022-07-27T23:36:19.789Z,21.99
2022-07-27T23:38:47.898Z,21.95
2022-07-27T23:41:16.745Z,21.83
2022-07-27T23:43:45.077Z,21.92
2022-07-27T23:46:13.404Z,21.89
2022-07-27T23:48:41.430Z,21.87
2022-07-27T23:51:16.595Z,21.87
2022-07-27T23:53:44.526Z,21.87
2022-07-27T23:56:12.444Z,21.86
2022-07-27T23:58:40.531Z,21.85
